Time;durP1;ratioP1;P1;durP2;ratioP2;P2;SDS_P1;SDS_P2;PMS_P1;PMS_P2;Temp;Humidity;BMP_temperature;BMP_pressure;BME280_temperature;BME280_humidity;BME280_pressure;Samples;Min_cycle;Max_cycle;Signal;HPM_P1;HPM_P2
2022/03/17 00:00:11;;;;;;;21.27;15.00;;;;;;;10.68;70.12;101853.63;6246040;23;20012;-62
2022/03/17 00:02:37;;;;;;;23.50;15.05;;;;;;;10.67;70.74;101856.25;6246159;22;20007;-62
2022/03/17 00:05:04;;;;;;;21.80;15.25;;;;;;;10.69;70.40;101865.09;6246489;22;20004;-63
2022/03/17 00:07:30;;;;;;;22.42;15.55;;;;;;;10.70;70.18;101874.81;6245994;22;20012;-62
2022/03/17 00:09:57;;;;;;;21.58;14.88;;;;;;;10.71;70.38;101873.97;6246126;22;20008;-62
2022/03/17 00:12:23;;;;;;;21.58;15.73;;;;;;;10.70;70.43;101880.09;6246284;22;20004;-62
2022/03/17 00:14:48;;;;;;;25.20;16.48;;;;;;;10.69;70.21;101867.75;6248628;22;20008;-62
2022/03/17 00:17:13;;;;;;;23.50;16.73;;;;;;;10.67;70.73;101867.72;6247572;22;20004;-62
2022/03/17 00:19:39;;;;;;;21.30;15.15;;;;;;;10.67;70.56;101869.47;6246387;22;20087;-62
2022/03/17 00:22:09;;;;;;;22.05;15.65;;;;;;;10.69;70.23;101868.63;6245742;22;20000;-63
2022/03/17 00:24:40;;;;;;;23.15;17.23;;;;;;;10.67;70.38;101870.34;6246044;22;20311;-62
2022/03/17 00:27:05;;;;;;;22.80;15.30;;;;;;;10.66;70.34;101868.56;6245945;23;20005;-61
2022/03/17 00:29:33;;;;;;;23.83;15.82;;;;;;;10.64;70.73;101864.09;6245686;23;20329;-61
2022/03/17 00:31:59;;;;;;;22.35;14.93;;;;;;;10.65;70.80;101865.88;6246360;22;20004;-62
2022/03/17 00:34:24;;;;;;;21.58;15.70;;;;;;;10.66;70.76;101863.28;6245912;22;20011;-62
2022/03/17 00:36:51;;;;;;;22.10;15.73;;;;;;;10.66;70.84;101865.00;6245652;22;20058;-62
2022/03/17 00:39:17;;;;;;;22.48;15.32;;;;;;;10.65;70.66;101856.19;6246242;22;20014;-62
2022/03/17 00:41:43;;;;;;;21.92;14.77;;;;;;;10.63;70.67;101864.94;6245919;22;20035;-62
2022/03/17 00:44:10;;;;;;;22.90;14.77;;;;;;;10.61;70.66;101870.16;6246050;22;20528;-62
2022/03/17 00:46:36;;;;;;;21.27;15.25;;;;;;;10.60;70.63;101864.84;6245942;22;20004;-62
2022/03/17 00:49:03;;;;;;;23.77;16.15;;;;;;;10.54;71.10;101855.03;6245934;22;20358;-61
2022/03/17 00:51:28;;;;;;;22.45;15.45;;;;;;;10.53;71.23;101875.28;6245622;22;20004;-62
2022/03/17 00:53:54;;;;;;;23.58;15.88;;;;;;;10.54;71.19;101878.81;6245843;23;20027;-61
2022/03/17 00:56:21;;;;;;;22.38;16.23;;;;;;;10.55;71.49;101879.69;6245816;22;20079;-62
2022/03/17 00:58:52;;;;;;;23.58;15.57;;;;;;;10.53;71.50;101877.91;6245610;22;20023;-62
2022/03/17 01:01:18;;;;;;;23.60;13.87;;;;;;;10.56;71.55;101877.09;6245728;22;20000;-62
2022/03/17 01:03:45;;;;;;;24.80;16.73;;;;;;;10.52;71.87;101878.75;6245747;22;20058;-62
2022/03/17 01:06:16;;;;;;;24.75;16.25;;;;;;;10.51;71.95;101879.59;6245799;22;20016;-62
2022/03/17 01:08:41;;;;;;;21.92;14.93;;;;;;;10.51;71.89;101876.06;6245521;23;20004;-62
2022/03/17 01:11:07;;;;;;;24.27;16.65;;;;;;;10.52;71.97;101875.22;6245589;23;20005;-62
2022/03/17 01:13:33;;;;;;;24.98;16.15;;;;;;;10.50;72.41;101871.66;6245785;23;20116;-62
2022/03/17 01:15:58;;;;;;;21.27;15.20;;;;;;;10.50;72.24;101880.47;6245792;22;20434;-62
2022/03/17 01:18:24;;;;;;;29.15;15.82;;;;;;;10.50;72.15;101877.81;6244130;23;20012;-62
2022/03/17 01:20:50;;;;;;;24.60;15.35;;;;;;;10.55;72.27;101877.94;6245464;22;20062;-62
2022/03/17 01:23:17;;;;;;;22.35;15.88;;;;;;;10.55;72.23;101874.41;6244135;23;20307;-62
2022/03/17 01:25:42;;;;;;;22.17;15.00;;;;;;;10.50;72.44;101866.38;6246054;22;20384;-62
2022/03/17 01:28:08;;;;;;;23.77;15.30;;;;;;;10.59;72.18;101868.34;6245726;22;20039;-62
2022/03/17 01:30:35;;;;;;;20.17;14.40;;;;;;;10.61;72.79;101866.63;6246231;22;20034;-62
2022/03/17 01:33:02;;;;;;;26.77;16.30;;;;;;;10.64;72.11;101869.38;6245791;22;20424;-62
2022/03/17 01:35:28;;;;;;;22.08;15.50;;;;;;;10.61;72.67;101872.81;6246798;22;20071;-62
2022/03/17 01:37:53;;;;;;;25.73;15.32;;;;;;;10.62;72.62;101877.28;6247732;23;20039;-62
2022/03/17 01:40:19;;;;;;;26.15;16.52;;;;;;;10.62;72.90;101871.97;6247176;23;20001;-62
2022/03/17 01:42:45;;;;;;;24.58;15.98;;;;;;;10.65;72.92;101879.97;6247818;23;20012;-62
2022/03/17 01:45:11;;;;;;;27.25;16.45;;;;;;;10.64;73.07;101864.97;6247620;22;20082;-62
2022/03/17 01:47:37;;;;;;;21.98;15.43;;;;;;;10.66;73.02;101871.22;6245696;23;20517;-62
2022/03/17 01:50:10;;;;;;;24.15;15.82;;;;;;;10.72;72.67;101859.91;6247355;22;20008;-61
2022/03/17 01:52:37;;;;;;;23.23;15.05;;;;;;;10.70;72.83;101866.88;6247741;22;20008;-62
2022/03/17 01:55:04;;;;;;;25.50;16.75;;;;;;;10.70;73.16;101869.53;6247782;22;20004;-62
2022/03/17 01:57:29;;;;;;;23.30;15.20;;;;;;;10.73;72.93;101866.97;6245592;23;20083;-62
2022/03/17 01:59:55;;;;;;;24.85;15.88;;;;;;;10.75;73.45;101871.47;6247244;23;20511;-62
2022/03/17 02:02:21;;;;;;;25.65;16.65;;;;;;;10.72;73.47;101866.06;6247374;22;20341;-62
2022/03/17 02:04:47;;;;;;;23.70;14.40;;;;;;;10.78;73.60;101875.91;6247719;22;20000;-63
2022/03/17 02:07:14;;;;;;;24.52;15.85;;;;;;;10.77;73.76;101864.44;6247185;22;20011;-62
2022/03/17 02:09:41;;;;;;;26.50;15.30;;;;;;;10.83;74.00;101865.44;6247287;22;20008;-62
2022/03/17 02:15:09;;;;;;;23.70;16.08;;;;;;;10.87;74.20;101862.03;6135244;23;20009;-62
2022/03/17 02:17:43;;;;;;;25.23;16.27;;;;;;;10.88;74.30;101866.50;6124940;23;20109;-62
2022/03/17 02:20:12;;;;;;;25.80;15.60;;;;;;;10.91;74.43;101875.38;6125221;23;20081;-62
2022/03/17 02:22:43;;;;;;;22.45;15.57;;;;;;;10.91;74.42;101879.78;6124929;23;20010;-62
2022/03/17 02:27:52;;;;;;;26.08;16.50;;;;;;;10.91;75.01;101877.13;6124819;23;20487;-62
2022/03/17 02:30:20;;;;;;;26.45;16.17;;;;;;;10.91;74.91;101882.41;6100380;23;20014;-62
2022/03/17 02:32:47;;;;;;;27.42;16.77;;;;;;;10.90;75.06;101886.81;6124947;23;20016;-62
2022/03/17 02:35:23;;;;;;;27.50;16.92;;;;;;;10.84;74.74;101884.03;6124857;23;20014;-62
2022/03/17 02:37:50;;;;;;;26.88;16.55;;;;;;;10.88;75.03;101895.59;6124788;23;20013;-62
2022/03/17 02:40:16;;;;;;;29.08;18.23;;;;;;;10.86;75.75;101900.81;6124870;23;20065;-61
2022/03/17 02:42:41;;;;;;;26.45;16.83;;;;;;;10.88;75.70;101888.53;6124677;23;20005;-62
2022/03/17 02:45:10;;;;;;;30.17;17.45;;;;;;;10.88;75.83;101888.53;6124853;23;20013;-62
2022/03/17 02:47:37;;;;;;;30.48;17.42;;;;;;;10.94;76.52;101901.00;6100177;23;20073;-62
2022/03/17 02:50:03;;;;;;;28.23;16.90;;;;;;;10.96;76.63;101907.22;6234686;23;20458;-62
2022/03/17 02:52:29;;;;;;;31.40;17.60;;;;;;;10.97;76.57;101915.22;6247282;22;20042;-62
2022/03/17 02:54:55;;;;;;;32.03;19.02;;;;;;;10.97;77.06;101911.69;6247289;22;20023;-62
2022/03/17 02:57:20;;;;;;;29.73;18.00;;;;;;;10.99;77.19;101920.53;6247151;22;20495;-62
2022/03/17 02:59:48;;;;;;;27.85;17.23;;;;;;;11.00;77.21;101919.66;6246506;22;20043;-62
2022/03/17 03:02:18;;;;;;;32.45;18.58;;;;;;;11.02;77.94;101924.16;6246952;22;20000;-62
2022/03/17 03:04:43;;;;;;;33.13;19.08;;;;;;;11.03;79.15;101923.28;6246771;22;20438;-62
2022/03/17 03:07:09;;;;;;;32.20;19.13;;;;;;;11.04;79.87;101948.88;6247016;22;20058;-62
2022/03/17 03:09:35;;;;;;;35.83;19.80;;;;;;;11.02;80.77;101936.50;6246677;22;20031;-63
2022/03/17 03:12:00;;;;;;;37.00;21.50;;;;;;;11.04;81.49;101951.53;6246506;22;20387;-63
2022/03/17 03:14:29;;;;;;;31.73;20.48;;;;;;;11.07;82.50;101960.41;6246554;22;20430;-62
2022/03/17 03:16:54;;;;;;;27.00;17.83;;;;;;;11.04;82.87;101962.09;6246564;22;20077;-63
2022/03/17 03:19:20;;;;;;;28.67;18.70;;;;;;;10.99;83.72;101971.69;6246901;22;20484;-62
2022/03/17 03:21:50;;;;;;;24.67;15.38;;;;;;;10.97;84.37;101983.97;6246590;22;20441;-62
2022/03/17 03:24:17;;;;;;;23.80;15.02;;;;;;;10.89;84.76;101988.16;6246771;22;20079;-62
2022/03/17 03:26:46;;;;;;;24.63;14.18;;;;;;;10.85;85.62;101994.22;6246664;22;20004;-63
2022/03/17 03:29:28;;;;;;;18.80;12.82;;;;;;;10.78;85.66;102001.06;6246431;22;20008;-62
2022/03/17 03:31:56;;;;;;;18.77;12.17;;;;;;;10.76;85.69;102012.47;6246857;22;20008;-62
2022/03/17 03:34:22;;;;;;;13.23;9.55;;;;;;;10.70;85.50;102010.53;6246519;22;20293;-62
2022/03/17 03:39:33;;;;;;;13.05;8.98;;;;;;;10.62;85.95;102019.06;6246312;23;20444;-63
2022/03/17 03:42:00;;;;;;;13.23;8.38;;;;;;;10.62;85.96;102020.00;6246775;22;20004;-63
2022/03/17 03:44:25;;;;;;;13.38;8.05;;;;;;;10.61;85.95;102028.75;6246304;22;20369;-63
2022/03/17 03:46:52;;;;;;;10.50;7.88;;;;;;;10.57;85.83;102039.19;6246403;22;20008;-63
2022/03/17 03:49:27;;;;;;;11.85;8.45;;;;;;;10.51;86.17;102047.84;6246358;22;20011;-63
2022/03/17 03:51:52;;;;;;;10.02;7.18;;;;;;;10.48;85.45;102053.91;6246204;22;20000;-63
2022/03/17 03:54:18;;;;;;;13.07;9.70;;;;;;;10.39;86.29;102065.97;6246621;22;20008;-63
2022/03/17 03:56:53;;;;;;;17.48;12.15;;;;;;;10.31;84.66;102084.22;6246222;22;20303;-64
2022/03/17 03:59:23;;;;;;;18.17;12.20;;;;;;;10.21;84.27;102087.38;6245300;22;20349;-63
2022/03/17 04:02:06;;;;;;;16.88;13.02;;;;;;;10.17;84.00;102101.34;6246285;22;20480;-63
2022/03/17 04:04:34;;;;;;;17.52;13.50;;;;;;;10.03;83.41;102108.81;6245912;22;20005;-63
2022/03/17 04:07:03;;;;;;;20.30;14.90;;;;;;;9.95;84.46;102107.66;6246328;22;20004;-63
2022/03/17 04:09:38;;;;;;;20.58;15.65;;;;;;;9.94;84.09;102114.69;6246344;22;20015;-63
2022/03/17 04:12:05;;;;;;;22.05;16.63;;;;;;;9.91;84.05;102117.22;6244521;23;20004;-64
2022/03/17 04:14:31;;;;;;;21.20;16.25;;;;;;;9.85;84.15;102121.38;6246213;22;20513;-63
2022/03/17 04:16:57;;;;;;;21.65;14.95;;;;;;;9.79;84.03;102127.34;6246021;22;20435;-63
2022/03/17 04:19:23;;;;;;;20.35;15.18;;;;;;;9.73;84.51;102130.69;6245829;22;20011;-63
2022/03/17 04:21:49;;;;;;;20.10;14.75;;;;;;;9.69;84.61;102149.91;6246282;22;20000;-63
2022/03/17 04:24:16;;;;;;;19.85;12.50;;;;;;;9.67;84.65;102156.84;6247798;22;20000;-63
2022/03/17 04:26:43;;;;;;;18.33;13.07;;;;;;;9.68;84.19;102168.34;6245956;22;20054;-63
2022/03/17 04:29:09;;;;;;;21.60;14.30;;;;;;;9.71;84.71;102176.34;6245957;22;20325;-63
2022/03/17 04:31:36;;;;;;;22.50;14.18;;;;;;;9.71;84.45;102179.88;6245968;22;20000;-64
2022/03/17 04:34:02;;;;;;;20.23;12.43;;;;;;;9.71;83.82;102187.78;6245727;22;20011;-64
2022/03/17 04:36:28;;;;;;;22.55;13.30;;;;;;;9.67;83.93;102195.53;6245800;22;20430;-63
2022/03/17 04:38:53;;;;;;;22.85;13.38;;;;;;;9.61;84.37;102201.50;6245813;23;20014;-63
2022/03/17 04:41:19;;;;;;;21.88;13.63;;;;;;;9.59;84.21;102210.19;6245324;22;20004;-63
2022/03/17 04:43:47;;;;;;;19.02;12.75;;;;;;;9.54;84.19;102224.13;6245846;22;20004;-64
2022/03/17 04:46:12;;;;;;;15.77;10.75;;;;;;;9.52;83.90;102230.22;6246161;22;20050;-64
2022/03/17 04:48:38;;;;;;;21.67;13.07;;;;;;;9.47;83.56;102234.41;6245524;22;20004;-64
2022/03/17 04:51:05;;;;;;;21.08;12.25;;;;;;;9.38;83.61;102242.88;6245742;22;20079;-63
2022/03/17 04:53:32;;;;;;;23.70;12.98;;;;;;;9.33;83.46;102252.34;6245956;22;20008;-64
2022/03/17 04:55:59;;;;;;;23.13;12.48;;;;;;;9.36;83.25;102257.75;6245875;22;20001;-63
2022/03/17 04:58:25;;;;;;;26.05;14.05;;;;;;;9.35;83.15;102265.59;6245718;22;20043;-64
2022/03/17 05:00:53;;;;;;;25.65;13.95;;;;;;;9.24;82.79;102255.53;6245740;22;20004;-64
2022/03/17 05:03:20;;;;;;;23.27;13.95;;;;;;;9.27;82.79;102275.84;6245694;23;20000;-64
2022/03/17 05:05:47;;;;;;;25.75;13.05;;;;;;;9.24;82.29;102281.91;6245967;22;20008;-63
2022/03/17 05:08:13;;;;;;;22.25;12.98;;;;;;;9.25;81.71;102290.72;6245618;22;20368;-63
2022/03/17 05:10:39;;;;;;;22.95;10.93;;;;;;;9.24;80.90;102299.47;6246042;22;20013;-64
2022/03/17 05:13:06;;;;;;;24.75;11.43;;;;;;;9.18;81.24;102309.78;6245995;22;20410;-64
2022/03/17 05:15:32;;;;;;;20.17;10.10;;;;;;;9.13;81.26;102322.78;6248170;22;20000;-63
2022/03/17 05:17:57;;;;;;;20.10;10.15;;;;;;;9.15;81.08;102328.09;6247690;22;20071;-63
2022/03/17 05:20:23;;;;;;;18.77;9.38;;;;;;;9.15;81.01;102333.38;6247949;22;20035;-63
2022/03/17 05:22:48;;;;;;;20.23;9.07;;;;;;;9.15;79.76;102342.19;6247705;22;20000;-63
2022/03/17 05:25:14;;;;;;;16.67;7.07;;;;;;;9.10;79.24;102356.03;6247731;22;20441;-63
2022/03/17 05:27:41;;;;;;;16.35;6.43;;;;;;;9.06;79.20;102367.28;6247768;22;20413;-63
2022/03/17 05:30:09;;;;;;;11.73;5.53;;;;;;;9.03;78.56;102373.31;6247555;22;20055;-63
2022/03/17 05:32:35;;;;;;;15.13;5.25;;;;;;;9.04;78.22;102383.06;6248056;22;20321;-64
2022/03/17 05:35:00;;;;;;;13.00;5.00;;;;;;;8.97;77.73;102366.06;6247402;22;20087;-64
2022/03/17 05:37:25;;;;;;;12.05;4.28;;;;;;;8.96;76.68;102376.56;6247607;22;20004;-63
2022/03/17 05:39:52;;;;;;;13.85;3.83;;;;;;;8.84;76.26;102392.75;6247572;22;20008;-63
2022/03/17 05:42:17;;;;;;;12.85;3.97;;;;;;;8.71;76.52;102390.44;6245903;23;20360;-64
2022/03/17 05:44:43;;;;;;;14.35;4.10;;;;;;;8.69;76.94;102393.03;6247514;22;20082;-63
2022/03/17 05:47:11;;;;;;;12.90;4.22;;;;;;;8.69;77.38;102413.16;6247346;22;20027;-63
2022/03/17 05:49:37;;;;;;;13.98;3.70;;;;;;;8.71;77.08;102417.69;6247224;22;20008;-63
2022/03/17 05:52:03;;;;;;;19.00;4.03;;;;;;;8.70;77.60;102417.63;6247246;22;20012;-63
2022/03/17 05:54:29;;;;;;;14.18;3.60;;;;;;;8.73;76.50;102434.44;6247486;22;20004;-63
2022/03/17 05:56:54;;;;;;;10.48;3.55;;;;;;;8.75;75.98;102443.34;6247316;22;20004;-63
2022/03/17 05:59:20;;;;;;;10.95;3.33;;;;;;;8.75;76.50;102438.06;6245410;23;20095;-63
2022/03/17 06:01:47;;;;;;;10.88;3.65;;;;;;;8.71;76.04;102446.69;6247352;22;20007;-63
2022/03/17 06:04:13;;;;;;;9.20;3.38;;;;;;;8.73;75.82;102449.38;6247413;22;20369;-64
2022/03/17 06:06:38;;;;;;;14.63;3.53;;;;;;;8.70;75.28;102447.50;6247120;22;20001;-63
2022/03/17 06:09:04;;;;;;;11.13;3.17;;;;;;;8.68;75.68;102457.06;6248136;22;20044;-63
2022/03/17 06:11:29;;;;;;;7.57;2.72;;;;;;;8.64;75.08;102464.78;6252819;22;20027;-63
2022/03/17 06:13:56;;;;;;;7.43;2.95;;;;;;;8.62;75.47;102477.91;6251921;22;20028;-63
2022/03/17 06:16:23;;;;;;;7.05;2.80;;;;;;;8.59;75.49;102476.84;6247870;22;20011;-63
2022/03/17 06:18:49;;;;;;;5.28;2.70;;;;;;;8.52;75.55;102481.84;6246815;22;20015;-63
2022/03/17 06:21:16;;;;;;;9.88;2.90;;;;;;;8.48;75.13;102489.56;6246117;22;20039;-64
2022/03/17 06:23:43;;;;;;;10.52;2.75;;;;;;;8.44;75.24;102498.16;6246480;22;20341;-63
2022/03/17 06:26:09;;;;;;;7.22;2.60;;;;;;;8.42;75.25;102498.06;6246081;22;20024;-64
2022/03/17 06:28:35;;;;;;;8.35;2.88;;;;;;;8.38;75.58;102496.09;6246436;22;20081;-63
2022/03/17 06:31:01;;;;;;;5.65;2.70;;;;;;;8.45;75.45;102516.66;6246111;22;20004;-63
2022/03/17 06:33:32;;;;;;;9.75;2.65;;;;;;;8.44;75.04;102527.13;6246381;22;20032;-63
2022/03/17 06:35:58;;;;;;;8.07;2.80;;;;;;;8.46;74.87;102528.09;6244167;23;20000;-63
2022/03/17 06:38:24;;;;;;;8.65;2.78;;;;;;;8.48;75.05;102531.69;6246293;22;20059;-63
2022/03/17 06:40:49;;;;;;;9.07;3.60;;;;;;;8.50;74.71;102537.94;6246158;22;20127;-62
2022/03/17 06:43:15;;;;;;;10.15;3.17;;;;;;;8.55;75.61;102546.94;6246084;22;20000;-63
2022/03/17 06:45:41;;;;;;;8.10;2.70;;;;;;;8.55;74.51;102554.84;6246077;22;20007;-62
2022/03/17 06:48:06;;;;;;;10.20;2.83;;;;;;;8.61;74.80;102564.75;6251683;22;20430;-63
2022/03/17 06:50:32;;;;;;;10.45;2.90;;;;;;;8.63;74.62;102571.03;6249464;22;20000;-63
2022/03/17 06:52:58;;;;;;;9.68;2.60;;;;;;;8.70;73.66;102575.75;6245753;22;20004;-63
2022/03/17 06:55:24;;;;;;;9.10;2.47;;;;;;;8.68;73.57;102577.41;6246453;22;20122;-62
2022/03/17 06:57:49;;;;;;;5.68;2.22;;;;;;;8.70;73.60;102581.03;6245979;22;20043;-63
2022/03/17 07:00:17;;;;;;;9.73;3.13;;;;;;;8.71;73.14;102582.81;6246396;22;20358;-62
2022/03/17 07:02:42;;;;;;;9.25;2.50;;;;;;;8.69;72.97;102588.03;6245785;22;20034;-62
2022/03/17 07:05:09;;;;;;;10.10;2.50;;;;;;;8.67;73.04;102597.59;6245815;22;20004;-63
2022/03/17 07:07:35;;;;;;;7.43;2.38;;;;;;;8.69;73.09;102608.19;6245988;22;20004;-63
2022/03/17 07:10:01;;;;;;;7.43;2.30;;;;;;;8.67;73.42;102602.84;6246132;22;20462;-62
2022/03/17 07:12:26;;;;;;;9.48;2.58;;;;;;;8.68;72.97;102612.56;6246503;22;20100;-62
2022/03/17 07:14:53;;;;;;;5.43;2.25;;;;;;;8.70;73.00;102625.81;6245834;22;20004;-62
2022/03/17 07:17:20;;;;;;;7.97;2.58;;;;;;;8.73;73.00;102621.56;6246087;22;20444;-62
2022/03/17 07:22:26;;;;;;;9.02;2.45;;;;;;;8.92;72.82;102638.28;6244557;23;20019;-62
2022/03/17 07:24:53;;;;;;;10.10;2.40;;;;;;;8.96;72.68;102642.84;6246001;22;20004;-62
2022/03/17 07:27:18;;;;;;;9.05;2.50;;;;;;;8.93;72.92;102647.97;6245943;22;20016;-62
2022/03/17 07:29:44;;;;;;;7.95;2.20;;;;;;;8.78;73.48;102648.19;6245733;22;20004;-62
2022/03/17 07:32:10;;;;;;;8.48;2.67;;;;;;;8.73;73.32;102662.84;6245089;22;20007;-62
2022/03/17 07:34:35;;;;;;;9.88;2.38;;;;;;;8.72;73.87;102661.94;6246106;22;20050;-63
2022/03/17 07:37:07;;;;;;;6.30;1.88;;;;;;;8.72;74.58;102671.59;6243772;23;20030;-63
2022/03/17 07:39:32;;;;;;;7.80;2.28;;;;;;;8.72;74.96;102682.13;6245909;22;20015;-62
2022/03/17 07:41:59;;;;;;;10.45;2.20;;;;;;;8.74;75.11;102683.13;6245518;22;20004;-62
2022/03/17 07:44:28;;;;;;;10.18;2.78;;;;;;;8.75;73.76;102692.84;6245730;22;20376;-63
2022/03/17 07:46:54;;;;;;;5.15;1.83;;;;;;;8.80;74.40;102693.94;6245421;22;20028;-63
2022/03/17 07:49:20;;;;;;;12.07;2.40;;;;;;;8.83;74.57;102709.91;6245813;22;20464;-63
2022/03/17 07:51:46;;;;;;;8.65;2.50;;;;;;;8.91;73.92;102698.00;6245948;22;20008;-62
2022/03/17 07:54:12;;;;;;;6.47;2.10;;;;;;;8.87;74.76;102703.06;6245954;22;20031;-63
2022/03/17 07:56:37;;;;;;;7.80;2.20;;;;;;;8.89;74.91;102711.94;6245580;22;20372;-62
2022/03/17 07:59:03;;;;;;;9.80;2.42;;;;;;;8.87;74.66;102706.59;6244985;22;20008;-62
2022/03/17 08:01:28;;;;;;;11.63;2.65;;;;;;;8.89;73.93;102718.09;6245568;22;20026;-62
2022/03/17 08:03:54;;;;;;;10.10;2.80;;;;;;;8.91;74.52;102729.63;6245508;22;20012;-63
2022/03/17 08:06:22;;;;;;;11.80;2.40;;;;;;;8.95;74.39;102736.88;6245375;22;20430;-62
2022/03/17 08:08:47;;;;;;;13.43;2.35;;;;;;;8.94;72.83;102737.66;6245062;22;20011;-63
2022/03/17 08:11:12;;;;;;;9.32;2.38;;;;;;;8.89;73.96;102738.28;6245449;22;20000;-62
2022/03/17 08:13:38;;;;;;;11.48;2.47;;;;;;;8.86;73.46;102746.03;6245448;22;20004;-62
2022/03/17 08:16:04;;;;;;;11.85;2.22;;;;;;;8.87;74.37;102747.88;6245461;22;20516;-62
2022/03/17 08:18:32;;;;;;;13.80;2.55;;;;;;;8.88;73.83;102749.69;6245180;22;20054;-62
2022/03/17 08:20:58;;;;;;;9.35;2.40;;;;;;;8.90;73.01;102762.09;6245305;22;20054;-62
2022/03/17 08:23:26;;;;;;;13.55;2.30;;;;;;;8.91;73.07;102763.03;6244976;22;20004;-63
2022/03/17 08:25:51;;;;;;;7.90;2.40;;;;;;;8.88;73.62;102776.94;6245151;22;20083;-62
2022/03/17 08:28:18;;;;;;;10.68;2.40;;;;;;;8.86;73.73;102777.69;6245459;22;20027;-62
2022/03/17 08:30:47;;;;;;;11.52;2.75;;;;;;;8.95;73.17;102783.41;6245216;22;20004;-62
2022/03/17 08:33:15;;;;;;;16.00;2.47;;;;;;;8.99;72.25;102791.56;6245493;22;20011;-62
2022/03/17 08:35:42;;;;;;;7.35;2.40;;;;;;;9.05;71.41;102795.31;6245251;22;20365;-62
2022/03/17 08:38:08;;;;;;;13.65;2.92;;;;;;;9.14;71.81;102799.28;6245342;22;20005;-62
2022/03/17 08:40:35;;;;;;;11.57;2.40;;;;;;;9.34;72.04;102802.00;6245094;22;20004;-62
2022/03/17 08:43:01;;;;;;;8.85;2.00;;;;;;;9.38;68.06;102799.56;6243655;23;20030;-62
2022/03/17 08:50:56;;;;;;;11.70;2.50;;;;;;;9.43;67.51;102824.41;6244794;23;20046;-62
2022/03/17 08:53:21;;;;;;;12.77;2.58;;;;;;;9.45;66.64;102835.94;6244883;22;20008;-62
2022/03/17 08:55:46;;;;;;;11.55;2.28;;;;;;;9.52;68.09;102835.41;6244972;22;20001;-62
2022/03/17 08:58:13;;;;;;;11.40;2.17;;;;;;;9.57;66.40;102832.97;6244557;22;20055;-62
2022/03/17 09:00:40;;;;;;;11.95;2.55;;;;;;;9.51;65.95;102832.72;6245454;22;20147;-62
2022/03/17 09:03:06;;;;;;;10.57;2.30;;;;;;;9.55;66.96;102839.94;6243041;23;20413;-62
2022/03/17 09:05:33;;;;;;;8.25;2.20;;;;;;;9.65;66.22;102851.81;6245371;22;20054;-61
2022/03/17 09:08:00;;;;;;;10.98;2.10;;;;;;;9.58;64.22;102850.63;6244916;22;20034;-62
2022/03/17 09:10:26;;;;;;;12.02;2.45;;;;;;;9.59;64.86;102843.59;6245695;22;20000;-62
2022/03/17 09:12:57;;;;;;;10.00;2.35;;;;;;;9.62;64.83;102855.22;6244788;22;20334;-62
2022/03/17 09:15:24;;;;;;;11.60;2.30;;;;;;;9.65;64.47;102863.28;6245115;22;20007;-62
2022/03/17 09:17:50;;;;;;;11.93;2.30;;;;;;;9.59;63.85;102865.59;6244899;22;20004;-62
2022/03/17 09:20:16;;;;;;;12.02;2.03;;;;;;;9.61;64.39;102869.25;6245101;22;20401;-62
2022/03/17 09:22:45;;;;;;;14.32;2.58;;;;;;;9.65;63.97;102870.28;6243256;23;20016;-62
2022/03/17 09:25:11;;;;;;;7.50;2.20;;;;;;;9.65;63.34;102873.84;6245053;22;20326;-62
2022/03/17 09:27:37;;;;;;;10.30;2.30;;;;;;;9.68;62.96;102881.00;6245306;22;20091;-62
2022/03/17 09:30:06;;;;;;;16.52;2.40;;;;;;;9.71;62.65;102884.66;6244770;22;20417;-62
2022/03/17 09:32:31;;;;;;;13.90;2.47;;;;;;;9.72;63.29;102888.22;6245178;22;20004;-62
2022/03/17 09:34:58;;;;;;;9.50;2.08;;;;;;;9.76;63.67;102882.25;6245061;22;20004;-62
2022/03/17 09:37:25;;;;;;;9.65;2.58;;;;;;;9.86;63.58;102886.25;6244992;22;20004;-62
2022/03/17 09:39:51;;;;;;;9.27;2.50;;;;;;;9.91;63.04;102895.28;6245107;22;20008;-62
2022/03/17 09:42:19;;;;;;;8.90;2.33;;;;;;;10.00;62.07;102900.97;6245076;22;20011;-62
2022/03/17 09:44:47;;;;;;;9.25;2.25;;;;;;;10.12;62.16;102904.19;6244625;22;20058;-62
2022/03/17 09:47:18;;;;;;;15.80;2.80;;;;;;;10.16;61.05;102914.06;6243625;23;20059;-62
2022/03/17 09:49:44;;;;;;;12.35;2.50;;;;;;;10.18;61.05;102917.66;6243044;23;20330;-61
2022/03/17 09:52:13;;;;;;;12.65;2.33;;;;;;;10.19;60.34;102918.56;6244743;22;20001;-63
2022/03/17 09:54:39;;;;;;;9.07;2.40;;;;;;;10.14;60.61;102926.28;6245280;22;20001;-62
2022/03/17 09:57:05;;;;;;;14.63;2.75;;;;;;;10.13;60.00;102928.84;6244511;22;20053;-62
2022/03/17 09:59:31;;;;;;;21.33;8.27;;;;;;;10.15;59.83;102929.81;6244293;22;20043;-63
2022/03/17 10:01:57;;;;;;;27.85;10.90;;;;;;;10.23;59.82;102939.91;6246053;22;20007;-62
2022/03/17 10:04:23;;;;;;;8.48;2.70;;;;;;;10.25;59.66;102943.56;6247316;22;20000;-62
2022/03/17 10:06:50;;;;;;;10.77;2.35;;;;;;;10.15;58.71;102932.44;6246663;22;20014;-62
2022/03/17 10:09:16;;;;;;;9.77;2.10;;;;;;;10.15;59.09;102958.88;6246654;22;20054;-62
2022/03/17 10:11:42;;;;;;;9.82;2.58;;;;;;;10.10;58.20;102961.31;6246583;22;20079;-62
2022/03/17 10:14:08;;;;;;;10.32;2.03;;;;;;;10.13;59.14;102963.19;6246973;22;20152;-62
2022/03/17 10:16:36;;;;;;;11.98;2.33;;;;;;;10.17;59.56;102967.78;6246640;22;20481;-62
2022/03/17 10:19:07;;;;;;;10.38;2.33;;;;;;;10.20;59.39;102970.59;6246494;22;20019;-62
2022/03/17 10:21:34;;;;;;;15.77;2.65;;;;;;;10.27;59.50;102983.25;6246552;23;20007;-62
2022/03/17 10:24:06;;;;;;;12.68;2.15;;;;;;;10.27;58.74;102976.22;6246216;22;20004;-62
2022/03/17 10:26:46;;;;;;;7.22;2.45;;;;;;;10.33;58.31;102988.84;6246889;22;20380;-62
2022/03/17 10:29:15;;;;;;;10.65;2.22;;;;;;;10.40;58.16;102990.00;6246267;22;20038;-62
2022/03/17 10:32:02;;;;;;;9.77;2.08;;;;;;;10.50;58.42;103003.75;6246630;22;20066;-61
2022/03/17 10:34:32;;;;;;;11.43;2.28;;;;;;;10.57;57.51;103002.25;6231363;22;20011;-62
2022/03/17 10:37:13;;;;;;;9.25;2.40;;;;;;;10.63;56.95;102999.00;6246459;22;20012;-63
2022/03/17 10:39:48;;;;;;;7.53;2.08;;;;;;;10.65;56.83;103005.25;6246181;22;20012;-62
2022/03/17 10:42:20;;;;;;;8.00;2.28;;;;;;;10.67;57.30;103008.88;6246490;22;20039;-62
2022/03/17 10:44:51;;;;;;;6.32;1.98;;;;;;;10.74;57.30;103010.94;6246405;22;20008;-62
2022/03/17 10:47:33;;;;;;;8.43;2.10;;;;;;;10.81;56.91;103014.78;6246400;22;20004;-62
2022/03/17 10:50:06;;;;;;;10.35;2.45;;;;;;;10.78;56.07;103021.72;6245867;22;20004;-61
2022/03/17 10:52:50;;;;;;;8.50;2.15;;;;;;;10.73;57.10;103020.63;6246669;22;20012;-62
2022/03/17 10:55:21;;;;;;;9.43;2.47;;;;;;;10.77;56.75;103034.91;6246064;22;20011;-62
2022/03/17 10:57:46;;;;;;;6.32;2.20;;;;;;;10.84;56.89;103037.00;6246155;22;20083;-62
2022/03/17 11:00:47;;;;;;;11.77;2.70;;;;;;;10.95;57.18;103043.66;6245920;22;20101;-63
2022/03/17 11:03:14;;;;;;;5.97;2.00;;;;;;;11.04;56.74;103041.41;6246052;23;20015;-62
2022/03/17 11:05:40;;;;;;;13.88;2.38;;;;;;;11.14;56.16;103052.41;6246295;22;20372;-62
2022/03/17 11:08:09;;;;;;;10.05;2.47;;;;;;;11.19;56.06;103051.78;6246291;22;20011;-62
2022/03/17 11:10:36;;;;;;;8.35;2.50;;;;;;;11.26;56.44;103058.22;6246268;22;20035;-63
2022/03/17 11:13:09;;;;;;;8.55;2.67;;;;;;;11.28;57.06;103062.75;6245692;22;20008;-63
2022/03/17 11:15:40;;;;;;;8.32;2.20;;;;;;;11.27;54.81;103068.00;6246495;22;20004;-62
2022/03/17 11:18:10;;;;;;;9.65;2.80;;;;;;;11.24;54.17;103068.75;6246036;22;20079;-62
2022/03/17 11:20:41;;;;;;;6.28;2.25;;;;;;;11.40;54.60;103069.44;6246159;22;20004;-62
2022/03/17 11:23:22;;;;;;;8.27;2.20;;;;;;;11.61;53.25;103078.28;6245897;22;20012;-62
2022/03/17 11:25:54;;;;;;;7.45;2.40;;;;;;;11.83;52.92;103084.50;6246284;22;20422;-63
2022/03/17 11:28:32;;;;;;;5.80;2.50;;;;;;;11.95;52.46;103079.72;6246216;22;20007;-62
2022/03/17 11:31:03;;;;;;;6.80;2.30;;;;;;;12.05;51.93;103073.94;6246170;22;20000;-62
2022/03/17 11:33:32;;;;;;;7.70;2.13;;;;;;;12.02;50.85;103084.41;6246102;23;20011;-62
2022/03/17 11:36:00;;;;;;;6.75;2.22;;;;;;;12.02;51.37;103077.34;6246333;22;20004;-62